Portada
METAR-TAF:

METAR-TAF

Aeroports :

Gaya, Índia

latitud: 24-44-40N, longitud: 84-57-04E, altitud: 116 m

Observació

L'informe es va fer fa 36 minuts, a les 13:00 UTC
Vent 3 kt del Nord/Nord-Oest
Temperatura 33°C
Humitat 23%
Pressió 1005 hPa
Visibilitat: 5000 m
Escasses núvols a una alçada de 1800 ft
Núvols disperses a una alçada de 10000 ft
calitja

METAR: VEGY 071300Z 33003KT 5000 HZ FEW018 SCT100 33/09 Q1005

Hora: 19:06 (13:36 UTC)

Pronòstic

L'informe es va fer fa 5 hores i 36 minuts, a les 08:00 UTC
Pronòstic vàlid del 07 a les 09 UTC al 07 a les 18 UTC
Vent 10 kt del Oest
Visibilitat: 5000 m
calitja
Evolucionant progressivament
l' 07 a les 15 UTC al 07 a les 17 UTC
Vent kt del Nord
Visibilitat: 3000 m
calitja

TAF: VEGY 070800Z 0709/0718 27010KT 5000 HZ NSC BECMG 0715/0717 00000KT 3000 HZ

Observacions i pronòstics meteorològics de més de 4000 aeroports (METAR i TAF).

Les estacions disponibles són els punts grocs i vermells al mapa.

Posi el ratolí al punt desitjat per veure el nom de l'estació.

Feu clic per veure les observacions i els pronòstics meteorològics.

Per canviar el mapa: feu clic els botons verds amb una creu de color negre per apropar; al botó verd amb un guió per allunyar la imatge; o en les fletxes verdes per a mapes adjacents.


METAR-TAF: